This is the latest recevied weather packets stored in our database for station/object MM9SQL. If no packets are shown the sender has not sent any weather packets the latest 10 day(s).
| Time | Temp. | Humidity | Pressure | Rain* | Wind** | Luminosity | Snow |
|---|---|---|---|---|---|---|---|
| 1778185502 | 11.11° C | 67% | 1008.9 hPa | 0 mm | - | - | - |
| 1778179202 | 13.33° C | 61% | 1008.4 hPa | 0 mm | - | - | - |
| 1778178003 | 13.33° C | 60% | 1008.3 hPa | 0 mm | - | - | - |
| 1778176807 | 13.89° C | 60% | 1008.1 hPa | 0 mm | - | - | - |
| 1778176504 | 13.33° C | 59% | 1008.1 hPa | 0 mm | - | - | - |
| 1778176203 | 13.89° C | 59% | 1008 hPa | 0 mm | - | - | - |
| 1778175903 | 13.89° C | 61% | 1008.1 hPa | 0 mm | - | - | - |
| 1778175305 | 13.89° C | 60% | 1008.3 hPa | 0 mm | - | - | - |
| 1778173504 | 12.78° C | 65% | 1008.5 hPa | 0 mm | - | - | - |
| 1778173204 | 12.78° C | 64% | 1008.5 hPa | 0 mm | - | - | - |
| 1778172005 | 13.33° C | 60% | 1008.5 hPa | 0 mm | - | - | - |
| 1778171403 | 13.33° C | 59% | 1008.6 hPa | 0 mm | - | - | - |
| 1778169305 | 13.33° C | 61% | 1008.7 hPa | 0 mm | - | - | - |
| 1778166903 | 13.33° C | 57% | 1008.9 hPa | 0 mm | - | - | - |
| 1778164805 | 13.33° C | 59% | 1009.3 hPa | 0 mm | - | - | - |
| 1778162404 | 13.33° C | 59% | 1009.5 hPa | 0 mm | - | - | - |
| 1778162103 | 13.89° C | 57% | 1009.4 hPa | 0 mm | - | - | - |
| 1778160003 | 13.33° C | 58% | 1009.7 hPa | 0 mm | - | - | - |
| 1778159105 | 11.67° C | 63% | 1009.9 hPa | 0 mm | - | - | - |
| 1778158807 | 11.67° C | 63% | 1010 hPa | 0 mm | - | - | - |
| 1778156703 | 11.67° C | 60% | 1009.9 hPa | 0 mm | - | - | - |
| 1778156403 | 11.67° C | 60% | 1010.1 hPa | 0 mm | - | - | - |
| 1778153703 | 12.22° C | 56% | 1010 hPa | 0 mm | - | - | - |
| 1778151905 | 12.78° C | 56% | 1009.8 hPa | 0 mm | - | - | - |
| 1778151303 | 12.78° C | 55% | 1009.8 hPa | 0 mm | - | - | - |
* Rain latest hour (hover to see other rain measurements)
** Current wind speed in m/s (hover to see current wind gust speed)